Time,TemperatureF,DewpointF,PressureIn,WindDirection,WindDirectionDegrees,WindSpeedMPH,WindSpeedGustMPH,Humidity,HourlyPrecipIn,Conditions,Clouds,dailyrainin,SoftwareType,DateUTC
2013-03-19 00:13:00,33.8,33.3,29.71,NW,315,0.0,-999.0,98,-99.99,,,0.00,Acu-Link.com,2013-03-19 04:13:00,
2013-03-19 00:28:00,33.8,33.3,29.69,WNW,292,0.0,-999.0,98,-99.99,,,0.00,Acu-Link.com,2013-03-19 04:28:00,
2013-03-19 00:43:00,34.0,33.5,29.68,NW,315,0.0,-999.0,98,-99.99,,,0.00,Acu-Link.com,2013-03-19 04:43:00,
2013-03-19 00:58:00,34.0,33.5,29.67,WNW,292,0.0,-999.0,98,-99.99,,,0.00,Acu-Link.com,2013-03-19 04:58:00,
2013-03-19 01:13:00,34.0,33.5,29.67,NW,315,0.0,-999.0,98,-99.99,,,0.00,Acu-Link.com,2013-03-19 05:13:00,
2013-03-19 01:28:00,34.0,33.5,29.67,ENE,67,0.0,-999.0,98,-99.99,,,0.00,Acu-Link.com,2013-03-19 05:28:00,
2013-03-19 01:43:00,33.8,33.3,29.67,NW,315,0.0,-999.0,98,-99.99,,,0.00,Acu-Link.com,2013-03-19 05:43:00,
2013-03-19 01:59:00,33.8,33.3,29.66,SSE,157,0.0,-999.0,98,-99.99,,,0.00,Acu-Link.com,2013-03-19 05:59:00,
2013-03-19 02:14:00,33.6,33.1,29.63,West,270,2.2,-999.0,98,-99.99,,,0.00,Acu-Link.com,2013-03-19 06:14:00,
2013-03-19 02:29:00,33.4,32.9,29.62,West,270,0.0,-999.0,98,-99.99,,,0.00,Acu-Link.com,2013-03-19 06:29:00,
2013-03-19 02:44:00,33.3,32.8,29.63,East,90,0.0,-999.0,98,-99.99,,,0.00,Acu-Link.com,2013-03-19 06:44:00,
2013-03-19 02:59:00,33.1,32.6,29.63,SSE,157,0.0,-999.0,98,-99.99,,,0.00,Acu-Link.com,2013-03-19 06:59:00,
2013-03-19 03:14:00,32.9,32.4,29.63,ENE,67,0.0,-999.0,98,-99.99,,,0.00,Acu-Link.com,2013-03-19 07:14:00,
2013-03-19 03:29:00,33.4,32.9,29.63,NE,45,0.0,-999.0,98,-99.99,,,0.00,Acu-Link.com,2013-03-19 07:29:00,
2013-03-19 03:44:00,33.3,32.8,29.62,NW,315,0.0,-999.0,98,-99.99,,,0.00,Acu-Link.com,2013-03-19 07:44:00,
2013-03-19 03:59:00,33.3,32.8,29.61,WNW,292,0.0,-999.0,98,-99.99,,,0.00,Acu-Link.com,2013-03-19 07:59:00,
2013-03-19 04:15:00,33.4,32.9,29.59,West,270,1.7,-999.0,98,-99.99,,,0.00,Acu-Link.com,2013-03-19 08:15:00,
2013-03-19 04:30:00,33.8,33.3,29.58,WNW,292,0.0,-999.0,98,-99.99,,,0.00,Acu-Link.com,2013-03-19 08:30:00,
2013-03-19 04:45:00,35.2,34.7,29.59,WNW,292,3.7,-999.0,98,-99.99,,,0.00,Acu-Link.com,2013-03-19 08:45:00,
2013-03-19 05:00:00,34.0,33.5,29.59,West,270,0.0,-999.0,98,-99.99,,,0.00,Acu-Link.com,2013-03-19 09:00:00,
2013-03-19 05:15:00,34.0,33.5,29.60,NW,315,0.0,-999.0,98,-99.99,,,0.00,Acu-Link.com,2013-03-19 09:15:00,
2013-03-19 05:30:00,34.0,33.5,29.61,NW,315,0.0,-999.0,98,-99.99,,,0.00,Acu-Link.com,2013-03-19 09:30:00,
2013-03-19 05:45:00,34.5,34.0,29.61,ENE,67,1.1,-999.0,98,-99.99,,,0.00,Acu-Link.com,2013-03-19 09:45:00,
2013-03-19 06:01:00,38.3,37.8,29.60,West,270,3.7,-999.0,98,-99.99,,,0.00,Acu-Link.com,2013-03-19 10:01:00,
2013-03-19 06:16:00,39.4,38.9,29.61,West,270,5.3,-999.0,98,-99.99,,,0.00,Acu-Link.com,2013-03-19 10:16:00,
2013-03-19 07:01:00,40.5,40.0,29.65,NW,315,2.7,-999.0,98,-99.99,,,0.00,Acu-Link.com,2013-03-19 11:01:00,
2013-03-19 07:16:00,41.5,41.0,29.65,West,270,4.7,-999.0,98,-99.99,,,0.00,Acu-Link.com,2013-03-19 11:16:00,
2013-03-19 07:31:00,41.5,41.0,29.64,WNW,292,2.7,-999.0,98,-99.99,,,0.00,Acu-Link.com,2013-03-19 11:31:00,
2013-03-19 07:46:00,41.9,41.4,29.63,West,270,4.2,-999.0,98,-99.99,,,0.00,Acu-Link.com,2013-03-19 11:46:00,
2013-03-19 08:01:00,43.7,43.2,29.65,NNE,22,5.8,-999.0,98,-99.99,,,0.00,Acu-Link.com,2013-03-19 12:01:00,
2013-03-19 08:17:00,44.2,43.7,29.65,NNW,337,5.8,-999.0,98,-99.99,,,0.00,Acu-Link.com,2013-03-19 12:17:00,
2013-03-19 08:47:00,45.0,36.5,29.68,West,270,7.8,-999.0,72,-99.99,,,0.00,Acu-Link.com,2013-03-19 12:47:00,
2013-03-19 09:02:00,44.6,34.7,29.65,West,270,10.4,-999.0,68,-99.99,,,0.00,Acu-Link.com,2013-03-19 13:02:00,
2013-03-19 09:32:00,46.2,36.2,29.68,West,270,4.7,-999.0,68,-99.99,,,0.00,Acu-Link.com,2013-03-19 13:32:00,
2013-03-19 09:47:00,46.9,36.5,29.69,ENE,67,2.2,-999.0,67,-99.99,,,0.00,Acu-Link.com,2013-03-19 13:47:00,
2013-03-19 10:02:00,47.5,37.5,29.69,NW,315,8.3,-999.0,68,-99.99,,,0.00,Acu-Link.com,2013-03-19 14:02:00,
2013-03-19 10:17:00,48.0,47.5,29.69,WNW,292,6.3,-999.0,98,-99.99,,,0.00,Acu-Link.com,2013-03-19 14:17:00,
2013-03-19 10:33:00,48.7,47.9,29.70,WSW,247,5.8,-999.0,97,-99.99,,,0.00,Acu-Link.com,2013-03-19 14:33:00,
2013-03-19 10:48:00,49.3,48.8,29.70,SSW,202,9.9,-999.0,98,-99.99,,,0.00,Acu-Link.com,2013-03-19 14:48:00,
2013-03-19 11:03:00,49.8,49.3,29.70,West,270,5.3,-999.0,98,-99.99,,,0.00,Acu-Link.com,2013-03-19 15:03:00,
2013-03-19 11:18:00,51.1,50.6,29.71,ENE,67,6.3,-999.0,98,-99.99,,,0.00,Acu-Link.com,2013-03-19 15:18:00,
2013-03-19 11:33:00,50.7,50.2,29.71,SSW,202,3.7,-999.0,98,-99.99,,,0.00,Acu-Link.com,2013-03-19 15:33:00,
2013-03-19 11:48:00,50.4,49.9,29.72,SSW,202,11.9,-999.0,98,-99.99,,,0.00,Acu-Link.com,2013-03-19 15:48:00,
2013-03-19 12:03:00,52.0,51.5,29.71,West,270,6.3,-999.0,98,-99.99,,,0.00,Acu-Link.com,2013-03-19 16:03:00,
2013-03-19 12:18:00,52.2,51.7,29.72,West,270,7.3,-999.0,98,-99.99,,,0.00,Acu-Link.com,2013-03-19 16:18:00,
2013-03-19 12:34:00,53.6,53.0,29.72,NNW,337,7.8,-999.0,98,-99.99,,,0.00,Acu-Link.com,2013-03-19 16:34:00,
2013-03-19 12:49:00,54.0,53.4,29.71,South,180,6.8,-999.0,98,-99.99,,,0.00,Acu-Link.com,2013-03-19 16:49:00,
2013-03-19 13:04:00,54.7,54.1,29.70,WNW,292,4.7,-999.0,98,-99.99,,,0.00,Acu-Link.com,2013-03-19 17:04:00,
2013-03-19 13:19:00,55.2,54.6,29.69,NW,315,9.9,-999.0,98,-99.99,,,0.00,Acu-Link.com,2013-03-19 17:19:00,
2013-03-19 13:34:00,55.9,55.3,29.69,NNE,22,8.3,-999.0,98,-99.99,,,0.00,Acu-Link.com,2013-03-19 17:34:00,
2013-03-19 13:49:00,56.8,56.2,29.67,West,270,6.3,-999.0,98,-99.99,,,0.00,Acu-Link.com,2013-03-19 17:49:00,
2013-03-19 14:04:00,55.9,55.3,29.64,WNW,292,7.8,-999.0,98,-99.99,,,0.00,Acu-Link.com,2013-03-19 18:04:00,
2013-03-19 14:19:00,57.6,57.0,29.64,NW,315,5.8,-999.0,98,-99.99,,,0.00,Acu-Link.com,2013-03-19 18:19:00,
2013-03-19 14:34:00,58.8,58.2,29.63,ENE,67,7.3,-999.0,98,-99.99,,,0.00,Acu-Link.com,2013-03-19 18:34:00,
2013-03-19 14:50:00,58.1,57.5,29.63,NW,315,6.3,-999.0,98,-99.99,,,0.00,Acu-Link.com,2013-03-19 18:50:00,
2013-03-19 15:05:00,58.3,57.7,29.63,NE,45,4.7,-999.0,98,-99.99,,,0.00,Acu-Link.com,2013-03-19 19:05:00,
2013-03-19 15:20:00,59.5,58.9,29.64,West,270,7.8,-999.0,98,-99.99,,,0.00,Acu-Link.com,2013-03-19 19:20:00,
2013-03-19 15:35:00,59.4,58.8,29.64,SW,225,10.9,-999.0,98,-99.99,,,0.00,Acu-Link.com,2013-03-19 19:35:00,
2013-03-19 15:50:00,59.7,59.1,29.65,West,270,13.0,-999.0,98,-99.99,,,0.00,Acu-Link.com,2013-03-19 19:50:00,
2013-03-19 16:05:00,60.6,60.0,29.65,West,270,5.3,-999.0,98,-99.99,,,0.00,Acu-Link.com,2013-03-19 20:05:00,
2013-03-19 16:20:00,59.4,58.8,29.65,West,270,8.9,-999.0,98,-99.99,,,0.00,Acu-Link.com,2013-03-19 20:20:00,
2013-03-19 16:35:00,59.5,58.9,29.65,West,270,6.8,-999.0,98,-99.99,,,0.00,Acu-Link.com,2013-03-19 20:35:00,
2013-03-19 16:50:00,58.1,57.5,29.67,West,270,8.3,-999.0,98,-99.99,,,0.00,Acu-Link.com,2013-03-19 20:50:00,
2013-03-19 17:06:00,57.7,57.1,29.68,NW,315,8.9,-999.0,98,-99.99,,,0.00,Acu-Link.com,2013-03-19 21:06:00,
2013-03-19 17:21:00,58.3,57.7,29.68,West,270,9.9,-999.0,98,-99.99,,,0.00,Acu-Link.com,2013-03-19 21:21:00,
2013-03-19 17:51:00,56.5,55.9,29.70,West,270,11.4,-999.0,98,-99.99,,,0.00,Acu-Link.com,2013-03-19 21:51:00,
2013-03-19 18:21:00,55.2,54.6,29.71,WNW,292,14.5,-999.0,98,-99.99,,,0.00,Acu-Link.com,2013-03-19 22:21:00,
2013-03-19 18:36:00,55.0,54.4,29.71,WSW,247,8.3,-999.0,98,-99.99,,,0.00,Acu-Link.com,2013-03-19 22:36:00,
2013-03-19 19:06:00,53.2,52.6,29.72,ENE,67,7.8,-999.0,98,-99.99,,,0.00,Acu-Link.com,2013-03-19 23:06:00,
2013-03-19 19:22:00,51.8,51.3,29.74,NW,315,6.3,-999.0,98,-99.99,,,0.00,Acu-Link.com,2013-03-19 23:22:00,
2013-03-19 19:37:00,50.9,50.4,29.75,WSW,247,10.9,-999.0,98,-99.99,,,0.00,Acu-Link.com,2013-03-19 23:37:00,
2013-03-19 19:52:00,50.4,49.9,29.75,WNW,292,9.4,-999.0,98,-99.99,,,0.00,Acu-Link.com,2013-03-19 23:52:00,
2013-03-19 20:22:00,49.3,48.8,29.76,NNE,22,6.3,-999.0,98,-99.99,,,0.00,Acu-Link.com,2013-03-20 00:22:00,
2013-03-19 20:37:00,48.6,48.1,29.77,SW,225,4.7,-999.0,98,-99.99,,,0.00,Acu-Link.com,2013-03-20 00:37:00,
2013-03-19 20:52:00,47.7,47.2,29.78,West,270,4.7,-999.0,98,-99.99,,,0.00,Acu-Link.com,2013-03-20 00:52:00,
2013-03-19 21:07:00,48.0,47.5,29.79,South,180,7.3,-999.0,98,-99.99,,,0.00,Acu-Link.com,2013-03-20 01:07:00,
2013-03-19 21:23:00,47.3,46.8,29.78,WSW,247,4.7,-999.0,98,-99.99,,,0.00,Acu-Link.com,2013-03-20 01:23:00,
2013-03-19 21:38:00,46.4,45.9,29.79,West,270,2.2,-999.0,98,-99.99,,,0.00,Acu-Link.com,2013-03-20 01:38:00,
2013-03-19 21:53:00,46.2,45.7,29.80,West,270,5.3,-999.0,98,-99.99,,,0.00,Acu-Link.com,2013-03-20 01:53:00,
2013-03-19 22:08:00,46.0,45.5,29.80,WSW,247,6.3,-999.0,98,-99.99,,,0.00,Acu-Link.com,2013-03-20 02:08:00,
2013-03-19 22:23:00,45.0,44.5,29.81,SW,225,2.7,-999.0,98,-99.99,,,0.00,Acu-Link.com,2013-03-20 02:23:00,
2013-03-19 22:38:00,45.0,44.5,29.82,NNW,337,7.8,-999.0,98,-99.99,,,0.00,Acu-Link.com,2013-03-20 02:38:00,
2013-03-19 22:53:00,44.6,44.1,29.82,West,270,5.3,-999.0,98,-99.99,,,0.00,Acu-Link.com,2013-03-20 02:53:00,
2013-03-19 23:09:00,44.4,43.9,29.83,WNW,292,5.8,-999.0,98,-99.99,,,0.00,Acu-Link.com,2013-03-20 03:09:00,
2013-03-19 23:24:00,44.1,43.6,29.83,North,0,4.2,-999.0,98,-99.99,,,0.00,Acu-Link.com,2013-03-20 03:24:00,
2013-03-19 23:39:00,43.7,43.2,29.84,SSW,202,5.3,-999.0,98,-99.99,,,0.00,Acu-Link.com,2013-03-20 03:39:00,
2013-03-19 23:54:00,43.0,42.5,29.84,WSW,247,5.3,-999.0,98,-99.99,,,0.00,Acu-Link.com,2013-03-20 03:54:00,